createdAt,value
2023-05-02T00:02:06.523Z,100787.00
2023-05-02T00:04:34.670Z,100790.03
2023-05-02T00:07:02.711Z,100788.91
2023-05-02T00:09:30.864Z,100791.75
2023-05-02T00:12:00.286Z,100788.25
2023-05-02T00:14:29.063Z,100788.78
2023-05-02T00:16:57.157Z,100785.47
2023-05-02T00:19:25.053Z,100786.19
2023-05-02T00:21:53.284Z,100788.56
2023-05-02T00:24:21.103Z,100790.59
2023-05-02T00:26:49.176Z,100789.75
2023-05-02T00:29:18.450Z,100785.31
2023-05-02T00:31:46.252Z,100781.97
2023-05-02T00:34:14.412Z,100785.63
2023-05-02T00:36:43.387Z,100784.13
2023-05-02T00:39:11.334Z,100778.69
2023-05-02T00:41:39.278Z,100782.72
2023-05-02T00:44:07.115Z,100782.53
2023-05-02T00:46:37.025Z,100776.38
2023-05-02T00:49:04.948Z,100774.19
2023-05-02T00:51:34.267Z,100778.41
2023-05-02T00:54:02.603Z,100780.44
2023-05-02T00:56:30.417Z,100789.47
2023-05-02T00:58:58.890Z,100782.09
2023-05-02T01:01:35.214Z,100786.81
2023-05-02T01:04:13.679Z,100781.94
2023-05-02T01:06:49.698Z,100787.16
2023-05-02T01:09:28.295Z,100781.63
2023-05-02T01:12:03.288Z,100777.28
2023-05-02T01:14:32.488Z,100785.84
2023-05-02T01:17:05.536Z,100782.88
2023-05-02T01:19:39.205Z,100789.88
2023-05-02T01:22:09.397Z,100792.25
2023-05-02T01:24:41.618Z,100787.09
2023-05-02T01:27:18.878Z,100787.81
2023-05-02T01:29:49.060Z,100793.50
2023-05-02T01:32:17.404Z,100798.34
2023-05-02T01:34:46.562Z,100799.16
2023-05-02T01:37:14.810Z,100796.66
2023-05-02T01:39:43.673Z,100798.69
2023-05-02T01:42:12.835Z,100807.72
2023-05-02T01:44:42.472Z,100812.69
2023-05-02T01:47:12.147Z,100819.06
2023-05-02T01:49:42.531Z,100816.09
2023-05-02T01:52:12.652Z,100814.09
2023-05-02T01:54:41.440Z,100812.09
2023-05-02T01:57:10.225Z,100816.13
2023-05-02T01:59:38.476Z,100819.50
2023-05-02T02:02:06.513Z,100823.69
2023-05-02T02:04:36.427Z,100826.03
2023-05-02T02:07:07.479Z,100821.19
2023-05-02T02:09:35.780Z,100821.03
2023-05-02T02:12:07.152Z,100826.19
2023-05-02T02:14:37.869Z,100826.53
2023-05-02T02:17:13.762Z,100830.84
2023-05-02T02:19:44.097Z,100832.03
2023-05-02T02:22:13.200Z,100829.16
2023-05-02T02:24:41.618Z,100839.56
2023-05-02T02:27:09.457Z,100842.16
2023-05-02T02:29:37.362Z,100846.34
2023-05-02T02:32:05.241Z,100848.50
2023-05-02T02:34:33.105Z,100856.00
2023-05-02T02:37:06.506Z,100853.50
2023-05-02T02:39:43.001Z,100862.13
2023-05-02T02:42:13.582Z,100867.63
2023-05-02T02:44:49.577Z,100866.28
2023-05-02T02:47:23.112Z,100865.28
2023-05-02T02:49:52.654Z,100877.13
2023-05-02T02:52:28.406Z,100881.75
2023-05-02T02:55:00.716Z,100878.41
2023-05-02T02:57:33.947Z,100884.06
2023-05-02T03:00:06.756Z,100879.56
2023-05-02T03:02:35.279Z,100892.38
2023-05-02T03:05:04.513Z,100900.38
2023-05-02T03:07:34.459Z,100903.31
2023-05-02T03:10:04.701Z,100904.84
2023-05-02T03:12:34.704Z,100913.41
2023-05-02T03:15:16.120Z,100917.91
2023-05-02T03:17:45.646Z,100916.09
2023-05-02T03:20:13.532Z,100921.53
2023-05-02T03:22:42.665Z,100931.88
2023-05-02T03:25:11.005Z,100937.81
2023-05-02T03:27:43.081Z,100943.16
2023-05-02T03:30:13.093Z,100941.97
2023-05-02T03:32:41.021Z,100943.28
2023-05-02T03:35:09.942Z,100953.78
2023-05-02T03:37:44.372Z,100952.56
2023-05-02T03:40:12.925Z,100961.16
2023-05-02T03:42:41.375Z,100956.94
2023-05-02T03:45:20.168Z,100961.97
2023-05-02T03:47:50.412Z,100962.31
2023-05-02T03:50:19.558Z,100967.97
2023-05-02T03:52:51.268Z,100965.78
2023-05-02T03:55:24.166Z,100974.75
2023-05-02T03:57:52.102Z,100974.91
2023-05-02T04:00:20.343Z,100980.53
2023-05-02T04:02:55.721Z,100985.78
2023-05-02T04:05:27.088Z,100978.78
2023-05-02T04:07:56.439Z,100994.56
2023-05-02T04:10:24.500Z,100995.91
2023-05-02T04:12:58.289Z,100989.34
2023-05-02T04:15:26.928Z,100995.41
2023-05-02T04:17:55.669Z,101002.78
2023-05-02T04:20:23.937Z,101001.84
2023-05-02T04:22:54.361Z,101011.06
2023-05-02T04:25:23.809Z,101017.53
2023-05-02T04:27:53.909Z,101017.09
2023-05-02T04:30:24.228Z,101019.22
2023-05-02T04:32:59.608Z,101022.91
2023-05-02T04:35:31.863Z,101028.72
2023-05-02T04:38:00.142Z,101033.22
2023-05-02T04:40:30.245Z,101029.03
2023-05-02T04:43:03.374Z,101037.69
2023-05-02T04:46:06.641Z,101036.59
2023-05-02T04:48:41.945Z,101037.41
2023-05-02T04:51:10.268Z,101037.28
2023-05-02T04:53:38.495Z,101040.94
2023-05-02T04:56:08.544Z,101049.03
2023-05-02T04:58:38.172Z,101048.50
2023-05-02T05:01:09.222Z,101064.16
2023-05-02T05:03:37.987Z,101066.72
2023-05-02T05:06:07.988Z,101063.94
2023-05-02T05:08:36.187Z,101067.56
2023-05-02T05:11:05.091Z,101069.88
2023-05-02T05:13:34.481Z,101076.91
2023-05-02T05:16:02.852Z,101079.75
2023-05-02T05:18:40.174Z,101086.50
2023-05-02T05:21:10.101Z,101078.91
2023-05-02T05:23:38.809Z,101090.81
2023-05-02T05:26:11.750Z,101099.13
2023-05-02T05:28:43.897Z,101100.53
2023-05-02T05:31:17.080Z,101098.69
2023-05-02T05:33:48.353Z,101102.81
2023-05-02T05:36:17.165Z,101108.16
2023-05-02T05:38:45.156Z,101118.13
2023-05-02T05:41:13.352Z,101121.38
2023-05-02T05:43:48.163Z,101133.09
2023-05-02T05:46:16.100Z,101134.84
2023-05-02T05:48:43.971Z,101131.53
2023-05-02T05:51:12.072Z,101129.66
2023-05-02T05:53:39.980Z,101139.13
2023-05-02T05:56:11.107Z,101141.47
2023-05-02T05:58:40.954Z,101147.69
2023-05-02T06:01:10.645Z,101156.06
2023-05-02T06:03:38.770Z,101160.63
2023-05-02T06:06:07.183Z,101161.75
2023-05-02T06:08:35.262Z,101163.47
2023-05-02T06:11:03.086Z,101170.16
2023-05-02T06:13:30.936Z,101179.19
2023-05-02T06:16:02.120Z,101170.28
2023-05-02T06:18:32.334Z,101176.66
2023-05-02T06:21:05.688Z,101190.06
2023-05-02T06:23:33.690Z,101193.19
2023-05-02T06:26:02.087Z,101188.47
2023-05-02T06:28:30.328Z,101197.75
2023-05-02T06:30:59.738Z,101210.78
2023-05-02T06:33:27.810Z,101203.22
2023-05-02T06:35:58.524Z,101215.69
2023-05-02T06:38:27.075Z,101216.41
2023-05-02T06:40:55.098Z,101225.06
2023-05-02T06:43:22.917Z,101217.91
2023-05-02T06:45:53.916Z,101218.66
2023-05-02T06:48:22.482Z,101216.88
2023-05-02T06:50:50.359Z,101231.84
2023-05-02T06:53:19.594Z,101234.66
2023-05-02T06:55:48.470Z,101240.38
2023-05-02T06:58:16.585Z,101257.38
2023-05-02T07:00:44.490Z,101251.31
2023-05-02T07:03:12.649Z,101260.38
2023-05-02T07:05:40.624Z,101250.53
2023-05-02T07:08:09.087Z,101260.88
2023-05-02T07:10:38.335Z,101269.09
2023-05-02T07:13:06.124Z,101273.97
2023-05-02T07:15:34.078Z,101283.16
2023-05-02T07:18:02.093Z,101288.50
2023-05-02T07:20:30.095Z,101295.47
2023-05-02T07:22:57.945Z,101292.84
2023-05-02T07:25:25.781Z,101296.28
2023-05-02T07:27:55.003Z,101295.31
2023-05-02T07:30:23.050Z,101292.53
2023-05-02T07:32:51.180Z,101297.19
2023-05-02T07:35:19.169Z,101294.84
2023-05-02T07:37:47.106Z,101297.72
2023-05-02T07:40:15.320Z,101298.88
2023-05-02T07:42:44.238Z,101302.53
2023-05-02T07:45:13.661Z,101309.56
2023-05-02T07:47:41.874Z,101304.19
2023-05-02T07:50:10.934Z,101307.84
2023-05-02T07:52:38.834Z,101320.63
2023-05-02T07:55:07.615Z,101321.38
2023-05-02T07:57:35.502Z,101327.81
2023-05-02T08:00:03.796Z,101328.47
2023-05-02T08:02:42.802Z,101333.66
2023-05-02T08:05:11.025Z,101325.72
2023-05-02T08:07:38.924Z,101339.75
2023-05-02T08:10:08.101Z,101328.56
2023-05-02T08:12:39.983Z,101339.16
2023-05-02T08:15:09.216Z,101338.50
2023-05-02T08:17:37.222Z,101337.97
2023-05-02T08:20:07.587Z,101344.19
2023-05-02T08:22:38.102Z,101346.28
2023-05-02T08:25:06.763Z,101347.59
2023-05-02T08:27:35.820Z,101352.75
2023-05-02T08:30:04.118Z,101366.06
2023-05-02T08:32:33.543Z,101366.78
2023-05-02T08:35:02.499Z,101365.13
2023-05-02T08:37:32.192Z,101368.34
2023-05-02T08:40:01.468Z,101365.47
2023-05-02T08:42:30.146Z,101360.59
2023-05-02T08:44:58.853Z,101371.97
2023-05-02T08:47:26.795Z,101381.97
2023-05-02T08:49:54.922Z,101383.06
2023-05-02T08:52:23.348Z,101385.63
2023-05-02T08:54:53.157Z,101385.59
2023-05-02T08:57:21.018Z,101392.34
2023-05-02T08:59:49.842Z,101400.00
2023-05-02T09:02:25.371Z,101399.34
2023-05-02T09:04:55.787Z,101408.94
2023-05-02T09:07:23.684Z,101410.19
2023-05-02T09:09:52.931Z,101416.31
2023-05-02T09:12:26.373Z,101424.06
2023-05-02T09:15:12.516Z,101428.22
2023-05-02T09:17:42.133Z,101426.38
2023-05-02T09:20:11.577Z,101435.69
2023-05-02T09:22:39.934Z,101444.06
2023-05-02T09:25:10.188Z,101442.28
2023-05-02T09:28:01.478Z,101446.63
2023-05-02T09:30:29.484Z,101438.16
2023-05-02T09:32:57.389Z,101445.97
2023-05-02T09:35:25.893Z,101446.31
2023-05-02T09:37:54.715Z,101449.84
2023-05-02T09:40:24.756Z,101456.53
2023-05-02T09:42:53.249Z,101460.84
2023-05-02T09:45:22.828Z,101456.06
2023-05-02T09:47:50.857Z,101455.41
2023-05-02T09:50:35.586Z,101462.22
2023-05-02T09:53:05.170Z,101453.75
2023-05-02T09:55:34.489Z,101464.34
2023-05-02T09:58:02.325Z,101459.00
2023-05-02T10:00:41.268Z,101471.31
2023-05-02T10:03:09.747Z,101462.97
2023-05-02T10:05:39.085Z,101474.38
2023-05-02T10:08:08.195Z,101475.22
2023-05-02T10:10:39.291Z,101483.41
2023-05-02T10:13:09.056Z,101475.22
2023-05-02T10:15:41.924Z,101484.03
2023-05-02T10:18:14.526Z,101484.59
2023-05-02T10:20:45.729Z,101485.25
2023-05-02T10:23:14.210Z,101491.28
2023-05-02T10:25:43.955Z,101496.13
2023-05-02T10:28:11.997Z,101493.06
2023-05-02T10:30:41.094Z,101498.28
2023-05-02T10:33:09.160Z,101510.81
2023-05-02T10:35:38.479Z,101521.34
2023-05-02T10:38:07.280Z,101529.28
2023-05-02T10:40:35.242Z,101520.25
2023-05-02T10:43:05.241Z,101529.81
2023-05-02T10:45:34.187Z,101527.97
2023-05-02T10:48:15.708Z,101540.00
2023-05-02T10:50:48.347Z,101532.78
2023-05-02T10:53:26.552Z,101544.16
2023-05-02T10:56:15.496Z,101562.09
2023-05-02T10:58:45.915Z,101558.59
2023-05-02T11:01:38.083Z,101568.91
2023-05-02T11:04:07.963Z,101568.91
2023-05-02T11:06:37.441Z,101581.81
2023-05-02T11:09:36.631Z,101592.13
2023-05-02T11:12:08.502Z,101596.56
2023-05-02T11:14:50.673Z,101586.50
2023-05-02T11:17:18.956Z,101597.06
2023-05-02T11:20:29.523Z,101606.41
2023-05-02T11:22:59.550Z,101611.75
2023-05-02T11:25:31.626Z,101606.88
2023-05-02T11:27:59.798Z,101621.31
2023-05-02T11:30:48.204Z,101614.28
2023-05-02T11:33:18.322Z,101611.69
2023-05-02T11:35:47.354Z,101622.50
2023-05-02T11:38:16.980Z,101626.94
2023-05-02T11:40:58.688Z,101632.41
2023-05-02T11:43:31.231Z,101644.56
2023-05-02T11:46:02.951Z,101632.22
2023-05-02T11:48:31.746Z,101633.91
2023-05-02T11:51:03.510Z,101630.56
2023-05-02T11:53:32.043Z,101637.19
2023-05-02T11:56:01.370Z,101640.31
2023-05-02T11:58:32.260Z,101648.38
2023-05-02T12:01:13.216Z,101650.94
2023-05-02T12:03:41.925Z,101655.41
2023-05-02T12:06:12.196Z,101650.34
2023-05-02T12:08:41.391Z,101661.13
2023-05-02T12:11:09.502Z,101656.56
2023-05-02T12:13:45.908Z,101659.13
2023-05-02T12:16:15.575Z,101662.75
2023-05-02T12:18:43.688Z,101661.09
2023-05-02T12:21:11.637Z,101670.41
2023-05-02T12:23:42.197Z,101667.75
2023-05-02T12:26:21.229Z,101679.31
2023-05-02T12:28:50.346Z,101675.41
2023-05-02T12:31:19.993Z,101684.59
2023-05-02T12:33:50.192Z,101683.00
2023-05-02T12:36:19.062Z,101687.66
2023-05-02T12:38:50.922Z,101676.09
2023-05-02T12:41:18.827Z,101684.13
2023-05-02T12:43:48.735Z,101691.56
2023-05-02T12:46:17.861Z,101685.09
2023-05-02T12:48:47.179Z,101676.34
2023-05-02T12:51:24.671Z,101683.63
2023-05-02T12:53:52.533Z,101672.97
2023-05-02T12:56:20.739Z,101679.75
2023-05-02T12:58:49.758Z,101692.78
2023-05-02T13:01:17.813Z,101694.81
2023-05-02T13:03:47.908Z,101701.88
2023-05-02T13:06:15.871Z,101697.44
2023-05-02T13:08:43.874Z,101703.91
2023-05-02T13:11:12.979Z,101705.91
2023-05-02T13:13:40.860Z,101699.94
2023-05-02T13:16:09.459Z,101696.41
2023-05-02T13:18:37.371Z,101708.56
2023-05-02T13:21:06.767Z,101709.25
2023-05-02T13:23:34.618Z,101706.78
2023-05-02T13:26:02.445Z,101725.00
2023-05-02T13:28:33.212Z,101714.97
2023-05-02T13:31:01.156Z,101725.00
2023-05-02T13:33:29.064Z,101724.59
2023-05-02T13:35:56.923Z,101724.53
2023-05-02T13:38:26.681Z,101718.78
2023-05-02T13:40:54.793Z,101725.91
2023-05-02T13:43:23.970Z,101727.16
2023-05-02T13:45:52.221Z,101728.22
2023-05-02T13:48:20.802Z,101730.09
2023-05-02T13:50:49.507Z,101727.16
2023-05-02T13:53:17.407Z,101742.06
2023-05-02T13:55:46.657Z,101747.66
2023-05-02T13:58:14.556Z,101743.19
2023-05-02T14:00:42.862Z,101753.75
2023-05-02T14:03:11.559Z,101752.56
2023-05-02T14:05:43.457Z,101758.03
2023-05-02T14:08:11.677Z,101755.28
2023-05-02T14:10:39.688Z,101769.91
2023-05-02T14:13:08.980Z,101757.97
2023-05-02T14:15:37.490Z,101764.50
2023-05-02T14:18:05.542Z,101764.38
2023-05-02T14:20:33.469Z,101767.28
2023-05-02T14:23:01.313Z,101783.31
2023-05-02T14:25:29.621Z,101778.13
2023-05-02T14:27:57.489Z,101790.31
2023-05-02T14:30:26.781Z,101784.25
2023-05-02T14:32:54.653Z,101785.25
2023-05-02T14:35:22.852Z,101786.88
2023-05-02T14:37:50.722Z,101787.16
2023-05-02T14:40:18.906Z,101795.34
2023-05-02T14:42:46.784Z,101798.47
2023-05-02T14:45:14.698Z,101804.09
2023-05-02T14:47:44.151Z,101808.03
2023-05-02T14:50:12.267Z,101804.97
2023-05-02T14:52:40.160Z,101814.78
2023-05-02T14:55:08.805Z,101810.88
2023-05-02T14:57:37.099Z,101817.34
2023-05-02T15:00:07.913Z,101818.59
2023-05-02T15:02:36.815Z,101817.44
2023-05-02T15:05:11.853Z,101829.00
2023-05-02T15:07:39.707Z,101819.97
2023-05-02T15:10:08.548Z,101819.06
2023-05-02T15:12:36.400Z,101829.22
2023-05-02T15:15:04.693Z,101820.94
2023-05-02T15:17:32.508Z,101831.09
2023-05-02T15:20:01.123Z,101836.50
2023-05-02T15:22:30.669Z,101838.19
2023-05-02T15:24:58.724Z,101842.63
2023-05-02T15:27:26.978Z,101843.91
2023-05-02T15:29:55.366Z,101847.38
2023-05-02T15:32:23.334Z,101854.22
2023-05-02T15:34:51.194Z,101847.06
2023-05-02T15:37:19.259Z,101846.44
2023-05-02T15:39:50.493Z,101845.81
2023-05-02T15:42:18.517Z,101844.50
2023-05-02T15:44:46.343Z,101845.53
2023-05-02T15:47:14.191Z,101854.09
2023-05-02T15:49:42.543Z,101858.09
2023-05-02T15:52:10.351Z,101862.25
2023-05-02T15:54:39.231Z,101846.19
2023-05-02T15:57:08.468Z,101847.00
2023-05-02T15:59:36.327Z,101839.66
2023-05-02T16:02:04.689Z,101840.22
2023-05-02T16:04:34.822Z,101847.78
2023-05-02T16:07:02.914Z,101854.56
2023-05-02T16:09:31.537Z,101845.97
2023-05-02T16:11:59.403Z,101853.00
2023-05-02T16:14:28.949Z,101854.88
2023-05-02T16:16:56.959Z,101854.56
2023-05-02T16:19:24.957Z,101857.75
2023-05-02T16:21:52.758Z,101852.72
2023-05-02T16:24:20.613Z,101860.03
2023-05-02T16:26:48.444Z,101851.88
2023-05-02T16:29:16.262Z,101856.66
2023-05-02T16:31:45.583Z,101851.56
2023-05-02T16:34:13.431Z,101859.59
2023-05-02T16:36:41.330Z,101852.91
2023-05-02T16:39:10.732Z,101854.56
2023-05-02T16:41:38.773Z,101860.19
2023-05-02T16:44:06.790Z,101851.03
2023-05-02T16:46:34.737Z,101849.91
2023-05-02T16:49:03.949Z,101856.66
2023-05-02T16:51:32.361Z,101860.47
2023-05-02T16:54:00.216Z,101854.53
2023-05-02T16:56:28.139Z,101858.50
2023-05-02T16:58:56.381Z,101859.63
2023-05-02T17:01:24.535Z,101860.88
2023-05-02T17:03:52.399Z,101866.06
2023-05-02T17:06:21.771Z,101866.91
2023-05-02T17:08:49.695Z,101867.31
2023-05-02T17:11:18.172Z,101871.06
2023-05-02T17:13:47.168Z,101876.88
2023-05-02T17:16:15.238Z,101879.63
2023-05-02T17:18:43.123Z,101870.94
2023-05-02T17:21:11.150Z,101877.03
2023-05-02T17:23:40.472Z,101864.22
2023-05-02T17:26:14.112Z,101873.06
2023-05-02T17:28:43.342Z,101873.69
2023-05-02T17:31:11.377Z,101877.84
2023-05-02T17:33:39.242Z,101876.56
2023-05-02T17:36:07.434Z,101885.69
2023-05-02T17:38:35.465Z,101890.94
2023-05-02T17:41:05.717Z,101891.63
2023-05-02T17:43:33.526Z,101889.41
2023-05-02T17:46:01.395Z,101895.09
2023-05-02T17:48:29.364Z,101893.56
2023-05-02T17:50:57.286Z,101898.88
2023-05-02T17:53:26.112Z,101898.38
2023-05-02T17:55:54.743Z,101893.47
2023-05-02T17:58:23.992Z,101903.88
2023-05-02T18:00:51.930Z,101901.31
2023-05-02T18:03:20.008Z,101900.97
2023-05-02T18:05:48.549Z,101914.38
2023-05-02T18:08:16.529Z,101911.97
2023-05-02T18:10:44.436Z,101916.66
2023-05-02T18:13:12.300Z,101925.34
2023-05-02T18:15:41.568Z,101915.00
2023-05-02T18:18:09.611Z,101925.50
2023-05-02T18:20:41.016Z,101922.72
2023-05-02T18:23:08.920Z,101919.72
2023-05-02T18:25:36.747Z,101928.59
2023-05-02T18:28:04.616Z,101929.25
2023-05-02T18:30:32.499Z,101935.84
2023-05-02T18:33:01.814Z,101928.91
2023-05-02T18:35:30.059Z,101930.72
2023-05-02T18:37:58.466Z,101933.91
2023-05-02T18:40:26.436Z,101933.31
2023-05-02T18:42:54.343Z,101939.81
2023-05-02T18:45:22.177Z,101934.47
2023-05-02T18:47:51.062Z,101935.72
2023-05-02T18:50:21.306Z,101938.69
2023-05-02T18:52:49.139Z,101942.06
2023-05-02T18:55:17.111Z,101933.50
2023-05-02T18:57:45.406Z,101940.13
2023-05-02T19:00:13.960Z,101948.47
2023-05-02T19:02:41.885Z,101946.06
2023-05-02T19:05:10.907Z,101945.22
2023-05-02T19:07:40.064Z,101953.56
2023-05-02T19:10:08.669Z,101956.47
2023-05-02T19:12:36.485Z,101963.88
2023-05-02T19:15:06.589Z,101959.13
2023-05-02T19:17:35.240Z,101958.59
2023-05-02T19:20:03.975Z,101965.19
2023-05-02T19:22:34.457Z,101963.78
2023-05-02T19:25:04.093Z,101969.75
2023-05-02T19:27:32.126Z,101968.25
2023-05-02T19:30:00.220Z,101973.97
2023-05-02T19:32:28.583Z,101982.09
2023-05-02T19:34:56.880Z,101980.84
2023-05-02T19:37:24.728Z,101986.94
2023-05-02T19:39:52.613Z,101989.13
2023-05-02T19:42:21.825Z,101985.59
2023-05-02T19:44:50.599Z,101993.06
2023-05-02T19:47:18.474Z,101999.28
2023-05-02T19:49:46.589Z,101996.75
2023-05-02T19:52:14.418Z,101994.19
2023-05-02T19:54:42.338Z,101997.63
2023-05-02T19:57:10.340Z,102007.19
2023-05-02T19:59:39.561Z,102008.28
2023-05-02T20:02:07.416Z,102002.31
2023-05-02T20:04:35.971Z,102012.91
2023-05-02T20:07:04.096Z,102012.41
2023-05-02T20:09:32.119Z,102007.34
2023-05-02T20:12:00.028Z,102006.72
2023-05-02T20:14:27.930Z,102009.78
2023-05-02T20:17:01.832Z,102002.78
2023-05-02T20:19:32.194Z,102010.75
2023-05-02T20:22:00.563Z,102024.41
2023-05-02T20:24:28.477Z,102026.09
2023-05-02T20:26:56.404Z,102033.03
2023-05-02T20:29:24.832Z,102029.25
2023-05-02T20:31:54.393Z,102032.53
2023-05-02T20:34:25.077Z,102036.16
2023-05-02T20:36:53.354Z,102039.78
2023-05-02T20:39:21.722Z,102037.50
2023-05-02T20:41:50.158Z,102039.78
2023-05-02T20:44:18.683Z,102040.75
2023-05-02T20:46:46.532Z,102049.00
2023-05-02T20:49:14.393Z,102045.38
2023-05-02T20:51:43.660Z,102049.94
2023-05-02T20:54:11.696Z,102050.56
2023-05-02T20:56:40.117Z,102053.59
2023-05-02T20:59:08.269Z,102057.59
2023-05-02T21:01:36.160Z,102055.63
2023-05-02T21:04:04.421Z,102060.34
2023-05-02T21:06:32.660Z,102063.75
2023-05-02T21:09:02.486Z,102067.69
2023-05-02T21:11:31.185Z,102063.59
2023-05-02T21:13:59.063Z,102064.81
2023-05-02T21:16:27.169Z,102072.19
2023-05-02T21:18:55.246Z,102080.16
2023-05-02T21:21:23.900Z,102081.06
2023-05-02T21:23:51.690Z,102075.28
2023-05-02T21:26:20.964Z,102077.28
2023-05-02T21:28:48.788Z,102077.69
2023-05-02T21:31:16.666Z,102082.53
2023-05-02T21:33:44.542Z,102086.66
2023-05-02T21:36:12.505Z,102079.78
2023-05-02T21:38:40.323Z,102079.75
2023-05-02T21:41:08.793Z,102081.75
2023-05-02T21:43:39.379Z,102081.31
2023-05-02T21:46:07.312Z,102084.31
2023-05-02T21:48:35.523Z,102083.34
2023-05-02T21:51:07.481Z,102084.41
2023-05-02T21:53:35.450Z,102084.63
2023-05-02T21:56:03.295Z,102084.75
2023-05-02T21:58:31.266Z,102083.28
2023-05-02T22:01:00.849Z,102088.31
2023-05-02T22:03:30.097Z,102086.91
2023-05-02T22:06:04.738Z,102086.88
2023-05-02T22:08:33.009Z,102090.00
2023-05-02T22:11:00.882Z,102086.66
2023-05-02T22:13:29.184Z,102084.38
2023-05-02T22:15:57.060Z,102092.34
2023-05-02T22:18:26.334Z,102095.84
2023-05-02T22:20:55.385Z,102090.91
2023-05-02T22:23:23.618Z,102098.19
2023-05-02T22:25:51.484Z,102100.50
2023-05-02T22:28:19.345Z,102102.06
2023-05-02T22:30:47.212Z,102107.38
2023-05-02T22:33:15.220Z,102111.22
2023-05-02T22:35:44.408Z,102115.47
2023-05-02T22:38:15.562Z,102109.84
2023-05-02T22:40:43.741Z,102117.41
2023-05-02T22:43:11.709Z,102114.25
2023-05-02T22:45:39.652Z,102121.25
2023-05-02T22:48:07.911Z,102126.09
2023-05-02T22:50:35.876Z,102121.50
2023-05-02T22:53:05.123Z,102127.13
2023-05-02T22:55:33.016Z,102126.56
2023-05-02T22:58:01.048Z,102130.56
2023-05-02T23:00:28.893Z,102131.09
2023-05-02T23:02:57.152Z,102135.16
2023-05-02T23:05:25.061Z,102133.22
2023-05-02T23:07:52.892Z,102132.06
2023-05-02T23:10:22.090Z,102131.03
2023-05-02T23:12:49.989Z,102132.03
2023-05-02T23:15:18.554Z,102136.94
2023-05-02T23:17:46.483Z,102138.22
2023-05-02T23:20:15.113Z,102137.19
2023-05-02T23:22:45.671Z,102141.19
2023-05-02T23:25:13.847Z,102135.75
2023-05-02T23:27:43.137Z,102143.53
2023-05-02T23:30:11.420Z,102143.22
2023-05-02T23:32:39.326Z,102146.72
2023-05-02T23:35:11.680Z,102142.50
2023-05-02T23:37:39.857Z,102135.31
2023-05-02T23:40:10.197Z,102140.13
2023-05-02T23:42:40.108Z,102142.06
2023-05-02T23:45:10.766Z,102147.81
2023-05-02T23:47:38.820Z,102141.97
2023-05-02T23:50:07.694Z,102137.72
2023-05-02T23:52:35.642Z,102149.31
2023-05-02T23:55:04.071Z,102137.34
2023-05-02T23:57:31.962Z,102145.63
